Terminal Aerodrome Forecast
Issued by NWS

Home | Current Version | Previous Version | Text Only | Print | Product List | Glossary Off
Versions: 1 2 3 4 5 6 7 8 9 10 11 12 13 14 15 16

000
FTUS43 KTOP 040809 AAA
TAFMHK
TAF AMD
KMHK 040809Z 0408/0506 00000KT P6SM SKC
     FM041100 00000KT 4SM BR SKC
     FM041300 15006KT P6SM SCT100=

USA.gov is the U.S. government's official web portal to all federal, state and local government web resources and services.